createdAt,value
2022-09-20T00:01:32.600Z,11.11
2022-09-20T00:04:05.528Z,11.04
2022-09-20T00:06:33.888Z,11.08
2022-09-20T00:09:03.243Z,11.03
2022-09-20T00:11:33.223Z,11.09
2022-09-20T00:14:02.215Z,11.15
2022-09-20T00:16:35.627Z,11.03
2022-09-20T00:19:05.174Z,11.02
2022-09-20T00:21:36.527Z,11.18
2022-09-20T00:24:04.509Z,11.32
2022-09-20T00:26:31.946Z,11.31
2022-09-20T00:29:00.324Z,11.30
2022-09-20T00:31:27.997Z,11.18
2022-09-20T00:34:15.580Z,11.18
2022-09-20T00:36:44.286Z,11.15
2022-09-20T00:39:13.517Z,10.96
2022-09-20T00:41:40.695Z,11.12
2022-09-20T00:44:50.067Z,10.95
2022-09-20T00:47:28.297Z,10.83
2022-09-20T00:50:35.978Z,10.89
2022-09-20T00:53:14.412Z,10.70
2022-09-20T00:55:47.491Z,10.68
2022-09-20T00:58:15.521Z,10.73
2022-09-20T01:00:45.371Z,10.66
2022-09-20T01:03:16.160Z,10.43
2022-09-20T01:05:45.363Z,10.19
2022-09-20T01:08:13.205Z,10.01
2022-09-20T01:10:40.493Z,10.18
2022-09-20T01:13:08.587Z,9.90
2022-09-20T01:15:38.914Z,10.17
2022-09-20T01:18:08.612Z,9.91
2022-09-20T01:20:41.021Z,9.98
2022-09-20T01:23:15.955Z,10.11
2022-09-20T01:25:58.810Z,9.96
2022-09-20T01:28:28.814Z,9.84
2022-09-20T01:31:04.714Z,9.72
2022-09-20T01:33:34.860Z,9.71
2022-09-20T01:36:06.356Z,9.76
2022-09-20T01:38:40.112Z,9.89
2022-09-20T01:41:27.191Z,9.74
2022-09-20T01:44:09.629Z,9.90
2022-09-20T01:46:38.207Z,9.64
2022-09-20T01:49:33.770Z,9.55
2022-09-20T01:52:47.688Z,9.74
2022-09-20T01:56:03.218Z,9.75
2022-09-20T01:58:46.967Z,9.83
2022-09-20T02:01:39.043Z,9.83
2022-09-20T02:04:37.860Z,9.71
2022-09-20T02:07:23.447Z,9.67
2022-09-20T02:10:11.241Z,9.70
2022-09-20T02:12:56.162Z,9.65
2022-09-20T02:15:41.511Z,9.79
2022-09-20T02:18:31.831Z,9.60
2022-09-20T02:21:24.183Z,9.44
2022-09-20T02:24:19.706Z,9.41
2022-09-20T02:27:16.785Z,9.47
2022-09-20T02:30:21.995Z,9.60
2022-09-20T02:33:26.887Z,9.50
2022-09-20T02:36:27.334Z,9.44
2022-09-20T02:39:03.199Z,9.03
2022-09-20T02:41:33.906Z,9.17
2022-09-20T02:44:22.552Z,9.07
2022-09-20T02:46:50.740Z,9.10
2022-09-20T02:49:41.612Z,9.09
2022-09-20T02:52:56.803Z,9.13
2022-09-20T02:55:29.901Z,8.94
2022-09-20T02:58:35.590Z,9.12
2022-09-20T03:01:24.410Z,9.19
2022-09-20T03:04:18.300Z,9.09
2022-09-20T03:06:53.681Z,9.17
2022-09-20T03:09:39.959Z,9.20
2022-09-20T03:12:33.606Z,9.12
2022-09-20T03:15:22.856Z,9.31
2022-09-20T03:18:08.497Z,9.38
2022-09-20T03:20:52.427Z,9.24
2022-09-20T03:24:10.499Z,9.10
2022-09-20T03:26:55.370Z,9.02
2022-09-20T03:29:48.521Z,9.15
2022-09-20T03:32:31.378Z,8.93
2022-09-20T03:35:01.885Z,8.98
2022-09-20T03:37:44.776Z,8.74
2022-09-20T03:40:19.700Z,8.72
2022-09-20T03:42:52.245Z,8.69
2022-09-20T03:45:31.871Z,8.76
2022-09-20T03:48:14.819Z,8.81
2022-09-20T03:51:00.779Z,8.70
2022-09-20T03:54:04.377Z,8.52
2022-09-20T03:56:59.681Z,8.52
2022-09-20T03:59:56.386Z,8.32
2022-09-20T04:02:31.459Z,8.50
2022-09-20T04:05:04.007Z,8.43
2022-09-20T04:08:07.412Z,8.37
2022-09-20T04:10:47.024Z,8.36
2022-09-20T04:13:41.074Z,8.37
2022-09-20T04:16:32.461Z,8.41
2022-09-20T04:19:18.355Z,8.38
2022-09-20T04:21:59.427Z,8.19
2022-09-20T04:24:57.282Z,8.30
2022-09-20T04:27:43.130Z,8.22
2022-09-20T04:30:30.408Z,8.30
2022-09-20T04:33:06.673Z,8.17
2022-09-20T04:36:02.513Z,8.25
2022-09-20T04:38:30.665Z,8.20
2022-09-20T04:40:58.282Z,8.22
2022-09-20T04:43:51.356Z,8.17
2022-09-20T04:46:44.281Z,8.19
2022-09-20T04:49:30.241Z,8.13
2022-09-20T04:52:07.007Z,7.78
2022-09-20T04:54:56.155Z,7.97
2022-09-20T04:57:23.821Z,7.94
2022-09-20T05:00:03.321Z,8.22
2022-09-20T05:02:47.209Z,8.46
2022-09-20T05:05:17.503Z,8.49
2022-09-20T05:08:24.043Z,8.47
2022-09-20T05:11:04.481Z,8.58
2022-09-20T05:13:38.831Z,8.53
2022-09-20T05:16:26.684Z,8.56
2022-09-20T05:19:25.429Z,8.48
2022-09-20T05:21:59.918Z,8.63
2022-09-20T05:24:52.981Z,8.77
2022-09-20T05:27:29.609Z,8.79
2022-09-20T05:30:04.926Z,8.85
2022-09-20T05:32:53.005Z,8.96
2022-09-20T05:36:02.846Z,8.98
2022-09-20T05:38:34.737Z,9.16
2022-09-20T05:41:32.663Z,9.37
2022-09-20T05:44:18.542Z,9.22
2022-09-20T05:47:18.952Z,9.36
2022-09-20T05:50:20.250Z,9.26
2022-09-20T05:53:07.075Z,9.47
2022-09-20T05:56:22.736Z,9.63
2022-09-20T05:59:27.723Z,9.75
2022-09-20T06:02:00.528Z,10.04
2022-09-20T06:04:58.214Z,10.09
2022-09-20T06:07:49.856Z,10.28
2022-09-20T06:10:42.970Z,10.44
2022-09-20T06:13:41.544Z,10.36
2022-09-20T06:16:18.740Z,10.21
2022-09-20T06:18:57.745Z,10.67
2022-09-20T06:21:36.296Z,10.50
2022-09-20T06:24:12.902Z,10.68
2022-09-20T06:26:44.758Z,10.87
2022-09-20T06:29:14.450Z,10.86
2022-09-20T06:31:42.191Z,10.56
2022-09-20T06:34:13.488Z,10.65
2022-09-20T06:37:09.585Z,10.82
2022-09-20T06:40:01.854Z,10.84
2022-09-20T06:42:30.082Z,10.98
2022-09-20T06:44:58.313Z,11.01
2022-09-20T06:47:27.401Z,11.01
2022-09-20T06:49:55.706Z,11.19
2022-09-20T06:52:23.480Z,11.40
2022-09-20T06:54:54.894Z,11.57
2022-09-20T06:57:38.036Z,11.65
2022-09-20T07:00:07.218Z,11.83
2022-09-20T07:02:34.975Z,11.72
2022-09-20T07:05:02.377Z,11.68
2022-09-20T07:07:29.789Z,11.70
2022-09-20T07:09:58.684Z,12.07
2022-09-20T07:12:26.200Z,12.05
2022-09-20T07:14:53.595Z,12.15
2022-09-20T07:17:22.343Z,12.38
2022-09-20T07:19:49.657Z,12.79
2022-09-20T07:22:17.268Z,12.74
2022-09-20T07:24:45.119Z,12.67
2022-09-20T07:27:12.987Z,12.88
2022-09-20T07:29:41.344Z,13.06
2022-09-20T07:32:09.315Z,13.12
2022-09-20T07:34:36.678Z,13.26
2022-09-20T07:37:04.105Z,13.57
2022-09-20T07:39:31.813Z,12.73
2022-09-20T07:41:59.318Z,12.45
2022-09-20T07:44:28.023Z,12.13
2022-09-20T07:46:58.276Z,12.55
2022-09-20T07:49:27.860Z,12.55
2022-09-20T07:51:56.026Z,12.82
2022-09-20T07:54:23.410Z,12.83
2022-09-20T07:56:50.829Z,13.47
2022-09-20T07:59:18.594Z,14.00
2022-09-20T08:01:46.179Z,13.77
2022-09-20T08:04:14.812Z,13.38
2022-09-20T08:06:44.632Z,13.52
2022-09-20T08:09:13.263Z,13.78
2022-09-20T08:11:42.980Z,13.83
2022-09-20T08:14:17.223Z,14.36
2022-09-20T08:16:47.549Z,14.45
2022-09-20T08:19:23.299Z,14.35
2022-09-20T08:21:53.553Z,13.95
2022-09-20T08:24:21.416Z,14.01
2022-09-20T08:26:48.848Z,14.21
2022-09-20T08:29:16.935Z,14.48
2022-09-20T08:31:44.501Z,14.95
2022-09-20T08:34:14.114Z,15.43
2022-09-20T08:36:47.044Z,15.64
2022-09-20T08:42:20.669Z,14.32
2022-09-20T08:45:35.586Z,14.62
2022-09-20T08:48:07.589Z,15.10
2022-09-20T08:50:37.547Z,15.37
2022-09-20T08:53:05.694Z,15.35
2022-09-20T08:55:36.958Z,15.09
2022-09-20T08:58:08.735Z,14.90
2022-09-20T09:00:38.336Z,15.22
2022-09-20T09:03:18.023Z,15.10
2022-09-20T09:05:50.123Z,15.14
2022-09-20T09:08:21.528Z,15.02
2022-09-20T09:10:54.334Z,15.18
2022-09-20T09:13:27.917Z,15.38
2022-09-20T09:16:03.420Z,15.42
2022-09-20T09:18:35.527Z,14.99
2022-09-20T09:21:05.126Z,14.83
2022-09-20T09:23:41.564Z,14.89
2022-09-20T09:26:18.868Z,15.19
2022-09-20T09:28:46.622Z,15.25
2022-09-20T09:31:28.360Z,15.64
2022-09-20T09:33:56.166Z,15.94
2022-09-20T09:36:25.882Z,16.03
2022-09-20T09:39:41.828Z,16.18
2022-09-20T09:42:26.000Z,16.04
2022-09-20T09:44:53.494Z,16.56
2022-09-20T09:47:29.157Z,16.49
2022-09-20T09:50:01.627Z,16.77
2022-09-20T09:52:33.552Z,17.04
2022-09-20T09:55:05.452Z,16.58
2022-09-20T09:57:59.115Z,16.22
2022-09-20T10:00:27.522Z,16.17
2022-09-20T10:03:21.290Z,16.69
2022-09-20T10:05:48.818Z,16.56
2022-09-20T10:08:19.369Z,16.38
2022-09-20T10:11:12.380Z,16.43
2022-09-20T10:14:06.556Z,16.93
2022-09-20T10:17:02.496Z,16.85
2022-09-20T10:19:36.045Z,17.08
2022-09-20T10:23:14.721Z,17.12
2022-09-20T10:25:55.261Z,17.15
2022-09-20T10:28:50.146Z,17.02
2022-09-20T10:31:44.339Z,17.31
2022-09-20T10:34:20.986Z,17.30
2022-09-20T10:36:59.711Z,17.35
2022-09-20T10:39:39.692Z,17.30
2022-09-20T10:42:48.502Z,17.58
2022-09-20T10:48:48.079Z,17.08
2022-09-20T10:51:25.343Z,17.43
2022-09-20T10:53:53.003Z,17.13
2022-09-20T10:56:37.158Z,17.11
2022-09-20T10:59:25.199Z,17.09
2022-09-20T11:02:36.715Z,17.32
2022-09-20T11:05:40.749Z,17.23
2022-09-20T11:08:13.486Z,17.88
2022-09-20T11:10:51.803Z,17.84
2022-09-20T11:13:38.563Z,18.25
2022-09-20T11:16:23.458Z,18.33
2022-09-20T11:19:27.146Z,18.61
2022-09-20T11:22:06.285Z,18.23
2022-09-20T11:24:41.159Z,18.00
2022-09-20T11:27:13.749Z,18.15
2022-09-20T11:29:47.956Z,18.42
2022-09-20T11:32:24.715Z,18.41
2022-09-20T11:35:00.298Z,18.48
2022-09-20T11:37:33.583Z,18.76
2022-09-20T11:40:18.533Z,18.56
2022-09-20T11:42:47.150Z,17.81
2022-09-20T11:45:14.655Z,17.71
2022-09-20T11:47:54.883Z,18.04
2022-09-20T11:50:57.327Z,18.11
2022-09-20T11:53:49.503Z,18.03
2022-09-20T11:56:32.363Z,18.24
2022-09-20T11:59:02.994Z,17.96
2022-09-20T12:01:43.063Z,17.99
2022-09-20T12:04:33.967Z,18.11
2022-09-20T12:07:19.077Z,17.76
2022-09-20T12:09:54.358Z,17.98
2022-09-20T12:12:41.872Z,17.86
2022-09-20T12:15:21.800Z,17.71
2022-09-20T12:17:49.844Z,18.13
2022-09-20T12:20:33.117Z,18.34
2022-09-20T12:23:41.405Z,17.88
2022-09-20T12:26:18.404Z,18.06
2022-09-20T12:28:51.119Z,18.08
2022-09-20T12:31:19.095Z,18.31
2022-09-20T12:34:25.311Z,18.30
2022-09-20T12:36:56.209Z,18.26
2022-09-20T12:39:36.745Z,18.73
2022-09-20T12:42:24.655Z,18.07
2022-09-20T12:44:52.041Z,18.31
2022-09-20T12:47:24.458Z,18.19
2022-09-20T12:50:12.906Z,17.89
2022-09-20T12:52:58.843Z,18.19
2022-09-20T12:55:30.142Z,18.40
2022-09-20T12:58:02.946Z,18.63
2022-09-20T13:00:57.545Z,18.66
2022-09-20T13:03:35.379Z,18.70
2022-09-20T13:06:09.096Z,19.03
2022-09-20T13:08:42.951Z,19.06
2022-09-20T13:11:19.519Z,19.35
2022-09-20T13:13:57.865Z,19.80
2022-09-20T13:16:31.993Z,19.19
2022-09-20T13:19:10.668Z,18.80
2022-09-20T13:21:42.509Z,18.65
2022-09-20T13:24:18.269Z,18.43
2022-09-20T13:26:48.164Z,18.93
2022-09-20T13:29:25.192Z,18.93
2022-09-20T13:31:52.669Z,18.47
2022-09-20T13:34:23.750Z,18.34
2022-09-20T13:36:58.521Z,18.77
2022-09-20T13:39:44.348Z,19.04
2022-09-20T13:42:19.944Z,19.17
2022-09-20T13:44:48.709Z,18.99
2022-09-20T13:47:26.377Z,18.64
2022-09-20T13:50:00.977Z,18.61
2022-09-20T13:52:31.176Z,18.81
2022-09-20T13:54:58.938Z,19.07
2022-09-20T13:57:30.731Z,19.20
2022-09-20T13:59:59.109Z,18.82
2022-09-20T14:02:32.133Z,19.32
2022-09-20T14:05:04.091Z,19.52
2022-09-20T14:07:33.014Z,19.69
2022-09-20T14:10:01.005Z,19.77
2022-09-20T14:12:28.698Z,19.92
2022-09-20T14:14:56.596Z,19.68
2022-09-20T14:17:25.810Z,19.90
2022-09-20T14:19:55.545Z,20.13
2022-09-20T14:22:26.991Z,20.77
2022-09-20T14:25:20.760Z,21.86
2022-09-20T14:27:48.314Z,22.27
2022-09-20T14:30:36.359Z,22.87
2022-09-20T14:33:06.509Z,22.46
2022-09-20T14:35:34.524Z,22.95
2022-09-20T14:38:10.558Z,23.57
2022-09-20T14:40:46.510Z,24.75
2022-09-20T14:43:22.726Z,25.15
2022-09-20T14:45:56.931Z,25.35
2022-09-20T14:48:45.734Z,25.78
2022-09-20T14:51:16.561Z,24.77
2022-09-20T14:53:48.746Z,25.25
2022-09-20T14:56:25.643Z,25.64
2022-09-20T14:59:06.706Z,26.42
2022-09-20T15:01:37.795Z,26.27
2022-09-20T15:04:10.097Z,25.32
2022-09-20T15:06:40.282Z,24.53
2022-09-20T15:09:12.464Z,24.88
2022-09-20T15:11:41.056Z,25.29
2022-09-20T15:14:08.551Z,25.73
2022-09-20T15:16:36.166Z,25.04
2022-09-20T15:19:05.979Z,25.03
2022-09-20T15:21:33.474Z,24.51
2022-09-20T15:24:01.017Z,24.99
2022-09-20T15:26:29.500Z,25.28
2022-09-20T15:28:56.850Z,25.02
2022-09-20T15:31:24.391Z,23.37
2022-09-20T15:33:52.803Z,23.31
2022-09-20T15:36:20.323Z,23.10
2022-09-20T15:38:47.692Z,23.44
2022-09-20T15:41:15.742Z,22.42
2022-09-20T15:43:43.507Z,20.53
2022-09-20T15:46:22.830Z,19.45
2022-09-20T15:48:50.793Z,17.95
2022-09-20T15:51:18.277Z,17.39
2022-09-20T15:53:49.501Z,16.81
2022-09-20T15:56:22.433Z,16.23
2022-09-20T15:59:01.116Z,16.08
2022-09-20T16:01:29.971Z,15.92
2022-09-20T16:03:57.695Z,16.19
2022-09-20T16:06:26.122Z,15.66
2022-09-20T16:08:53.492Z,15.60
2022-09-20T16:11:22.891Z,15.42
2022-09-20T16:14:00.759Z,15.18
2022-09-20T16:16:30.544Z,15.46
2022-09-20T16:19:16.510Z,15.37
2022-09-20T16:21:47.310Z,15.21
2022-09-20T16:24:15.372Z,14.80
2022-09-20T16:26:43.747Z,14.91
2022-09-20T16:29:14.907Z,14.81
2022-09-20T16:31:47.537Z,14.66
2022-09-20T16:34:21.086Z,14.78
2022-09-20T16:36:51.078Z,14.67
2022-09-20T16:39:19.975Z,14.37
2022-09-20T16:41:49.430Z,14.43
2022-09-20T16:44:16.877Z,14.19
2022-09-20T16:46:45.655Z,14.23
2022-09-20T16:49:13.725Z,14.26
2022-09-20T16:51:43.102Z,14.41
2022-09-20T16:54:13.716Z,14.32
2022-09-20T16:56:46.786Z,14.32
2022-09-20T16:59:16.026Z,14.24
2022-09-20T17:01:44.821Z,14.16
2022-09-20T17:04:17.689Z,13.86
2022-09-20T17:06:46.302Z,13.82
2022-09-20T17:09:14.571Z,13.88
2022-09-20T17:11:47.496Z,13.84
2022-09-20T17:14:17.430Z,14.01
2022-09-20T17:16:49.333Z,13.71
2022-09-20T17:19:19.718Z,13.60
2022-09-20T17:21:53.086Z,13.37
2022-09-20T17:24:22.779Z,13.29
2022-09-20T17:26:51.079Z,13.32
2022-09-20T17:29:19.966Z,13.13
2022-09-20T17:31:56.811Z,13.11
2022-09-20T17:34:26.560Z,13.27
2022-09-20T17:36:55.321Z,13.18
2022-09-20T17:39:23.365Z,13.19
2022-09-20T17:41:51.553Z,13.21
2022-09-20T17:44:19.575Z,13.21
2022-09-20T17:46:50.112Z,13.12
2022-09-20T17:49:19.927Z,12.96
2022-09-20T17:51:56.782Z,12.78
2022-09-20T17:54:24.818Z,12.66
2022-09-20T17:56:56.398Z,12.41
2022-09-20T17:59:24.832Z,12.30
2022-09-20T18:01:54.615Z,12.30
2022-09-20T18:04:24.670Z,11.97
2022-09-20T18:06:54.619Z,11.91
2022-09-20T18:09:25.057Z,11.98
2022-09-20T18:11:54.098Z,11.85
2022-09-20T18:14:32.780Z,11.72
2022-09-20T18:17:01.559Z,11.70
2022-09-20T18:19:35.895Z,11.76
2022-09-20T18:22:04.265Z,11.62
2022-09-20T18:24:32.418Z,11.53
2022-09-20T18:27:01.106Z,11.54
2022-09-20T18:29:29.484Z,11.54
2022-09-20T18:31:59.838Z,11.50
2022-09-20T18:34:33.680Z,11.56
2022-09-20T18:37:01.786Z,11.36
2022-09-20T18:39:33.798Z,11.22
2022-09-20T18:42:02.751Z,11.22
2022-09-20T18:44:34.400Z,11.25
2022-09-20T18:47:04.119Z,11.21
2022-09-20T18:49:32.283Z,11.28
2022-09-20T18:51:59.635Z,10.84
2022-09-20T18:54:32.108Z,10.33
2022-09-20T18:57:00.208Z,10.19
2022-09-20T18:59:28.338Z,10.46
2022-09-20T19:02:35.878Z,10.33
2022-09-20T19:05:28.864Z,10.40
2022-09-20T19:08:10.428Z,10.51
2022-09-20T19:10:52.264Z,10.53
2022-09-20T19:13:43.318Z,10.52
2022-09-20T19:16:13.945Z,10.21
2022-09-20T19:19:07.558Z,10.28
2022-09-20T19:21:47.499Z,10.43
2022-09-20T19:24:28.322Z,10.18
2022-09-20T19:26:56.171Z,10.26
2022-09-20T19:29:26.919Z,10.19
2022-09-20T19:31:57.129Z,10.21
2022-09-20T19:34:32.594Z,9.83
2022-09-20T19:37:07.301Z,10.21
2022-09-20T19:40:04.478Z,9.99
2022-09-20T19:42:44.067Z,10.15
2022-09-20T19:45:23.809Z,9.83
2022-09-20T19:48:25.445Z,9.93
2022-09-20T19:50:53.735Z,10.09
2022-09-20T19:53:26.833Z,10.13
2022-09-20T19:56:00.255Z,10.23
2022-09-20T19:58:28.314Z,9.78
2022-09-20T20:00:58.370Z,9.80
2022-09-20T20:03:27.640Z,9.69
2022-09-20T20:06:07.888Z,9.66
2022-09-20T20:08:55.097Z,9.83
2022-09-20T20:11:42.065Z,9.58
2022-09-20T20:14:21.382Z,9.42
2022-09-20T20:16:57.744Z,9.24
2022-09-20T20:19:54.476Z,9.57
2022-09-20T20:22:34.192Z,9.64
2022-09-20T20:25:02.091Z,9.71
2022-09-20T20:27:31.465Z,9.20
2022-09-20T20:29:59.010Z,9.09
2022-09-20T20:32:27.078Z,9.07
2022-09-20T20:34:54.407Z,9.21
2022-09-20T20:37:24.125Z,9.12
2022-09-20T20:39:52.294Z,9.25
2022-09-20T20:42:19.886Z,9.20
2022-09-20T20:44:47.686Z,9.06
2022-09-20T20:47:15.419Z,9.02
2022-09-20T20:49:44.017Z,9.22
2022-09-20T20:52:11.469Z,9.31
2022-09-20T20:54:39.188Z,8.83
2022-09-20T20:57:06.556Z,8.87
2022-09-20T20:59:33.880Z,9.08
2022-09-20T21:02:07.116Z,8.60
2022-09-20T21:04:35.469Z,8.85
2022-09-20T21:07:04.351Z,8.90
2022-09-20T21:09:32.259Z,8.74
2022-09-20T21:11:59.680Z,8.65
2022-09-20T21:14:27.411Z,8.45
2022-09-20T21:16:54.725Z,8.64
2022-09-20T21:19:23.072Z,8.61
2022-09-20T21:21:50.697Z,8.02
2022-09-20T21:24:17.886Z,8.48
2022-09-20T21:26:46.684Z,8.44
2022-09-20T21:29:15.808Z,8.29
2022-09-20T21:31:46.863Z,8.10
2022-09-20T21:34:15.927Z,8.12
2022-09-20T21:36:44.750Z,8.26
2022-09-20T21:39:12.578Z,8.10
2022-09-20T21:41:40.599Z,7.84
2022-09-20T21:44:10.456Z,7.83
2022-09-20T21:46:42.639Z,7.80
2022-09-20T21:49:11.866Z,7.84
2022-09-20T21:51:42.252Z,7.82
2022-09-20T21:54:11.079Z,7.89
2022-09-20T21:56:40.508Z,8.02
2022-09-20T21:59:08.059Z,7.90
2022-09-20T22:01:38.245Z,8.04
2022-09-20T22:04:08.501Z,7.98
2022-09-20T22:06:38.585Z,7.93
2022-09-20T22:09:17.358Z,8.12
2022-09-20T22:11:46.943Z,7.90
2022-09-20T22:14:18.386Z,7.86
2022-09-20T22:16:47.391Z,7.88
2022-09-20T22:19:17.458Z,7.74
2022-09-20T22:21:47.110Z,7.64
2022-09-20T22:24:16.166Z,7.75
2022-09-20T22:26:46.150Z,7.66
2022-09-20T22:29:14.081Z,7.61
2022-09-20T22:31:45.752Z,7.66
2022-09-20T22:34:20.227Z,7.92
2022-09-20T22:36:48.572Z,7.72
2022-09-20T22:39:17.233Z,7.58
2022-09-20T22:41:45.237Z,7.47
2022-09-20T22:44:12.810Z,7.71
2022-09-20T22:46:40.644Z,7.49
2022-09-20T22:49:09.509Z,7.45
2022-09-20T22:51:37.645Z,7.42
2022-09-20T22:54:07.325Z,7.45
2022-09-20T22:56:34.789Z,7.29
2022-09-20T22:59:11.043Z,7.43
2022-09-20T23:01:43.979Z,7.62
2022-09-20T23:04:19.061Z,7.32
2022-09-20T23:06:48.108Z,7.07
2022-09-20T23:09:18.113Z,6.99
2022-09-20T23:11:45.762Z,6.91
2022-09-20T23:14:15.574Z,7.05
2022-09-20T23:16:43.697Z,6.89
2022-09-20T23:19:12.283Z,6.56
2022-09-20T23:21:41.199Z,6.54
2022-09-20T23:24:11.048Z,6.82
2022-09-20T23:26:39.759Z,7.03
2022-09-20T23:29:11.033Z,7.15
2022-09-20T23:31:40.255Z,7.04
2022-09-20T23:34:08.833Z,7.04
2022-09-20T23:36:39.609Z,7.20
2022-09-20T23:39:08.458Z,7.15
2022-09-20T23:41:36.866Z,6.90
2022-09-20T23:44:10.031Z,7.28
2022-09-20T23:46:38.561Z,7.25
2022-09-20T23:49:07.002Z,7.42
2022-09-20T23:51:35.666Z,7.00
2022-09-20T23:54:03.993Z,7.12
2022-09-20T23:56:31.311Z,7.14
2022-09-20T23:58:58.547Z,6.75
